Time;durP1;ratioP1;P1;durP2;ratioP2;P2;SDS_P1;SDS_P2;PMS_P1;PMS_P2;Temp;Humidity;BMP_temperature;BMP_pressure;BME280_temperature;BME280_humidity;BME280_pressure;Samples;Min_cycle;Max_cycle;Signal;HPM_P1;HPM_P2
2022/11/29 00:02:06;;;;;;;7.88;5.88;;;6.60;99.90;;;;;;5032152;28;20203;-69
2022/11/29 00:04:33;;;;;;;7.45;5.30;;;6.60;99.90;;;;;;5033353;28;20222;-69
2022/11/29 00:07:00;;;;;;;7.60;6.68;;;6.60;99.90;;;;;;5032632;28;20222;-69
2022/11/29 00:09:26;;;;;;;9.23;6.28;;;6.60;99.90;;;;;;5034158;28;20209;-69
2022/11/29 00:12:13;;;;;;;7.57;5.50;;;6.60;99.90;;;;;;5035700;28;20206;-69
2022/11/29 00:14:40;;;;;;;5.85;5.00;;;6.60;99.90;;;;;;5027846;22;20289;-93
2022/11/29 00:17:07;;;;;;;6.38;5.32;;;6.60;99.90;;;;;;5015219;28;20199;-93
2022/11/29 00:19:35;;;;;;;8.07;6.72;;;6.60;99.90;;;;;;5015731;28;20201;-94
2022/11/29 00:22:03;;;;;;;9.65;6.05;;;6.60;99.90;;;;;;5015717;28;20214;-94
2022/11/29 00:24:31;;;;;;;6.30;5.60;;;6.60;99.90;;;;;;5015611;28;20249;-93
2022/11/29 00:27:00;;;;;;;6.82;5.40;;;6.60;99.90;;;;;;5030078;22;20316;-69
2022/11/29 00:29:27;;;;;;;8.02;5.75;;;6.60;99.90;;;;;;5051932;28;20198;-69
2022/11/29 00:31:54;;;;;;;10.15;6.07;;;6.50;99.90;;;;;;5051119;28;20205;-69
2022/11/29 00:34:21;;;;;;;8.27;6.43;;;6.60;99.90;;;;;;5051549;28;20225;-68
2022/11/29 00:36:48;;;;;;;7.78;6.28;;;6.50;99.90;;;;;;5051506;28;20311;-69
2022/11/29 00:39:15;;;;;;;8.98;6.20;;;6.50;99.90;;;;;;5051501;28;20585;-68
2022/11/29 00:41:42;;;;;;;8.00;6.32;;;6.60;99.90;;;;;;5050817;28;20210;-68
2022/11/29 00:44:10;;;;;;;11.60;6.20;;;6.60;99.90;;;;;;5051412;28;20197;-69
2022/11/29 00:46:37;;;;;;;6.45;5.78;;;6.60;99.90;;;;;;5050886;28;20221;-69
2022/11/29 00:49:04;;;;;;;7.00;5.60;;;6.60;99.90;;;;;;5051291;28;20206;-69
2022/11/29 00:51:31;;;;;;;10.75;6.32;;;6.60;99.90;;;;;;5050681;28;20202;-69
2022/11/29 00:53:58;;;;;;;6.85;6.13;;;6.60;99.90;;;;;;5051095;28;20228;-69
2022/11/29 00:56:25;;;;;;;7.10;6.10;;;6.60;99.90;;;;;;5051080;28;20205;-69
2022/11/29 00:58:52;;;;;;;10.77;6.60;;;6.60;99.90;;;;;;5050895;28;20680;-69
2022/11/29 01:01:20;;;;;;;7.55;6.20;;;6.50;99.90;;;;;;5050628;28;20209;-68
2022/11/29 01:03:47;;;;;;;6.82;5.80;;;6.50;99.90;;;;;;5050908;28;20202;-68
2022/11/29 01:06:16;;;;;;;6.65;5.80;;;6.50;99.90;;;;;;5050820;28;20230;-68
2022/11/29 01:08:44;;;;;;;7.10;6.03;;;6.50;99.90;;;;;;5050730;28;20217;-69
2022/11/29 01:11:13;;;;;;;9.45;5.70;;;6.40;99.90;;;;;;5050282;28;20707;-69
2022/11/29 01:13:40;;;;;;;9.73;6.50;;;6.40;99.90;;;;;;5050805;28;20216;-68
2022/11/29 01:16:08;;;;;;;7.07;5.07;;;6.40;99.90;;;;;;5051159;28;20232;-68
2022/11/29 01:18:36;;;;;;;8.27;5.47;;;6.50;99.90;;;;;;5050798;28;20221;-69
2022/11/29 01:21:08;;;;;;;7.32;6.47;;;6.50;99.90;;;;;;5050290;28;20198;-69
2022/11/29 01:23:36;;;;;;;7.53;5.90;;;6.50;99.90;;;;;;5050505;28;20205;-69
2022/11/29 01:26:05;;;;;;;7.43;5.80;;;6.50;99.90;;;;;;5050757;28;20226;-68
2022/11/29 01:28:32;;;;;;;7.53;6.20;;;6.50;99.90;;;;;;5050341;28;20219;-69
2022/11/29 01:30:59;;;;;;;7.20;6.10;;;6.50;99.90;;;;;;5050029;28;20217;-69
2022/11/29 01:33:25;;;;;;;7.25;5.18;;;6.50;99.90;;;;;;5050519;28;20212;-69
2022/11/29 01:35:54;;;;;;;6.10;5.40;;;6.60;99.90;;;;;;5050428;28;20222;-68
2022/11/29 01:38:22;;;;;;;7.07;5.30;;;6.60;99.90;;;;;;5050540;28;20208;-69
2022/11/29 01:40:58;;;;;;;7.80;5.35;;;6.60;99.90;;;;;;5049783;28;20696;-69
2022/11/29 01:43:24;;;;;;;5.80;5.03;;;6.60;99.90;;;;;;5050643;28;20205;-69
2022/11/29 01:45:51;;;;;;;6.28;5.65;;;6.60;99.90;;;;;;5050325;28;20594;-69
2022/11/29 01:48:21;;;;;;;6.18;5.28;;;6.50;99.90;;;;;;5050536;28;20232;-69
2022/11/29 01:50:48;;;;;;;5.63;4.82;;;6.60;99.90;;;;;;5049654;28;20201;-69
2022/11/29 01:53:17;;;;;;;7.05;5.35;;;6.60;99.90;;;;;;5050581;28;20700;-68
2022/11/29 01:55:48;;;;;;;11.30;5.78;;;6.60;99.90;;;;;;5050194;28;20217;-69
2022/11/29 01:58:15;;;;;;;7.30;6.03;;;6.60;99.90;;;;;;5052914;28;20194;-69
2022/11/29 02:00:42;;;;;;;7.28;5.30;;;6.50;99.90;;;;;;5053819;28;20217;-69
2022/11/29 02:03:10;;;;;;;5.45;4.82;;;6.50;99.90;;;;;;5054455;28;20205;-69
2022/11/29 02:05:39;;;;;;;6.70;5.13;;;6.50;99.90;;;;;;5053971;28;20228;-69
2022/11/29 02:08:08;;;;;;;7.55;5.32;;;6.50;99.90;;;;;;5054378;28;20221;-67
2022/11/29 02:10:48;;;;;;;8.13;5.40;;;6.50;99.90;;;;;;5053458;28;20649;-69
2022/11/29 02:13:25;;;;;;;5.95;5.00;;;6.50;99.90;;;;;;5054300;28;20202;-69
2022/11/29 02:15:59;;;;;;;6.43;4.28;;;6.50;99.90;;;;;;5053575;28;20221;-68
2022/11/29 02:18:37;;;;;;;6.78;5.18;;;6.60;99.90;;;;;;5053994;28;20203;-68
2022/11/29 02:21:27;;;;;;;5.35;4.85;;;6.60;99.90;;;;;;5053164;28;20202;-68
2022/11/29 02:24:14;;;;;;;6.05;4.20;;;6.50;99.90;;;;;;5048192;28;20574;-68
2022/11/29 02:27:17;;;;;;;5.78;5.15;;;6.60;99.90;;;;;;5053402;28;20205;-69
2022/11/29 02:30:12;;;;;;;6.47;4.65;;;6.60;99.90;;;;;;5046084;28;20284;-69
2022/11/29 02:33:12;;;;;;;5.00;4.13;;;6.60;99.90;;;;;;5053165;28;20208;-69
2022/11/29 02:36:01;;;;;;;5.10;4.13;;;6.60;99.90;;;;;;5053272;28;20275;-69
2022/11/29 02:38:47;;;;;;;5.18;4.20;;;6.60;99.90;;;;;;5053674;28;20210;-69
2022/11/29 02:41:30;;;;;;;4.20;3.63;;;6.60;99.90;;;;;;5053008;28;20202;-67
2022/11/29 02:44:35;;;;;;;4.75;3.95;;;6.60;99.90;;;;;;5053336;28;20206;-67
2022/11/29 02:47:15;;;;;;;3.38;3.03;;;6.60;99.90;;;;;;5053388;28;20198;-68
2022/11/29 02:50:00;;;;;;;4.07;3.33;;;6.60;99.90;;;;;;5053168;28;20206;-67
2022/11/29 02:52:38;;;;;;;4.78;4.15;;;6.60;99.90;;;;;;5052885;28;20667;-67
2022/11/29 02:55:12;;;;;;;3.70;3.25;;;6.60;99.90;;;;;;5053181;28;20217;-67
2022/11/29 02:57:44;;;;;;;3.83;3.53;;;6.60;99.90;;;;;;5053177;28;20193;-67
2022/11/29 03:00:15;;;;;;;4.47;3.78;;;6.60;99.90;;;;;;5053187;28;20534;-67
2022/11/29 03:02:51;;;;;;;5.07;3.75;;;6.60;99.90;;;;;;5053010;28;20689;-67
2022/11/29 03:05:25;;;;;;;4.72;4.00;;;6.60;99.90;;;;;;5053368;28;20222;-67
2022/11/29 03:07:59;;;;;;;4.10;3.67;;;6.60;99.90;;;;;;5052698;28;20217;-67
2022/11/29 03:10:35;;;;;;;5.10;4.20;;;6.50;99.90;;;;;;5052450;28;20666;-68
2022/11/29 03:13:05;;;;;;;5.93;4.55;;;6.50;99.90;;;;;;5053011;28;20205;-68
2022/11/29 03:15:36;;;;;;;6.03;4.38;;;6.50;99.90;;;;;;5052845;28;20221;-67
2022/11/29 03:18:19;;;;;;;6.60;4.97;;;6.50;99.90;;;;;;5053501;28;20208;-67
2022/11/29 03:21:03;;;;;;;5.63;3.72;;;6.50;99.90;;;;;;5052526;28;20199;-67
2022/11/29 03:23:36;;;;;;;5.28;4.07;;;6.40;99.90;;;;;;5053238;28;20202;-68
2022/11/29 03:26:07;;;;;;;4.35;3.75;;;6.40;99.90;;;;;;5052745;28;20405;-68
2022/11/29 03:28:39;;;;;;;5.30;4.22;;;6.40;99.90;;;;;;5052410;28;20248;-67
2022/11/29 03:31:11;;;;;;;6.40;4.25;;;6.40;99.90;;;;;;5052073;28;20212;-68
2022/11/29 03:33:47;;;;;;;4.72;3.70;;;6.40;99.90;;;;;;5052343;28;20271;-68
2022/11/29 03:36:23;;;;;;;5.35;4.40;;;6.40;99.90;;;;;;5052498;28;20217;-67
2022/11/29 03:38:54;;;;;;;4.25;3.50;;;6.40;99.90;;;;;;5052279;28;20203;-68
2022/11/29 03:41:28;;;;;;;4.28;3.65;;;6.40;99.90;;;;;;5052015;28;20222;-68
2022/11/29 03:43:59;;;;;;;4.93;4.40;;;6.40;99.90;;;;;;5052204;28;20210;-68
2022/11/29 03:46:32;;;;;;;4.68;3.72;;;6.40;99.90;;;;;;5040181;28;20198;-68
2022/11/29 03:49:05;;;;;;;5.40;3.70;;;6.40;99.90;;;;;;5032657;28;20979;-68
2022/11/29 03:51:54;;;;;;;4.68;3.90;;;6.40;99.90;;;;;;5032245;28;20579;-67
2022/11/29 03:54:25;;;;;;;3.83;3.40;;;6.40;99.90;;;;;;5032257;28;20218;-68
2022/11/29 03:56:53;;;;;;;4.32;3.80;;;6.40;99.90;;;;;;5032119;28;20202;-67
2022/11/29 03:59:32;;;;;;;5.30;3.78;;;6.40;99.90;;;;;;5031996;28;20210;-68
2022/11/29 04:02:44;;;;;;;5.43;4.25;;;6.40;99.90;;;;;;5031599;28;20206;-68
2022/11/29 04:05:36;;;;;;;4.75;3.95;;;6.40;99.90;;;;;;5032134;28;20233;-68
2022/11/29 04:08:43;;;;;;;4.63;3.55;;;6.40;99.90;;;;;;5031806;28;20222;-67
2022/11/29 04:11:54;;;;;;;3.78;3.47;;;6.50;99.90;;;;;;5031364;28;20206;-68
2022/11/29 04:14:33;;;;;;;3.85;3.20;;;6.40;99.90;;;;;;5015591;28;20686;-68
2022/11/29 04:17:32;;;;;;;5.00;4.50;;;6.50;99.90;;;;;;5031762;28;20217;-67
2022/11/29 04:20:56;;;;;;;4.45;3.55;;;6.50;99.90;;;;;;5030856;28;20245;-67
2022/11/29 04:23:55;;;;;;;4.53;3.97;;;6.50;99.90;;;;;;4968433;28;20207;-68
2022/11/29 04:26:47;;;;;;;3.83;3.20;;;6.50;99.90;;;;;;5030803;28;20238;-68
2022/11/29 04:29:29;;;;;;;3.75;3.30;;;6.50;99.90;;;;;;5012407;28;20606;-68
2022/11/29 04:32:14;;;;;;;5.13;3.80;;;6.50;99.90;;;;;;5031434;28;20215;-68
2022/11/29 04:34:58;;;;;;;3.33;3.03;;;6.50;99.90;;;;;;5031563;28;20222;-68
2022/11/29 04:37:59;;;;;;;4.00;3.60;;;6.50;99.90;;;;;;5024799;28;20198;-67
2022/11/29 04:40:47;;;;;;;3.90;3.50;;;6.60;99.90;;;;;;5020633;28;20210;-68
2022/11/29 04:43:29;;;;;;;3.38;3.08;;;6.60;99.90;;;;;;5020059;28;20199;-68
2022/11/29 04:46:18;;;;;;;3.63;2.90;;;6.60;99.90;;;;;;5020185;28;20220;-68
2022/11/29 04:49:06;;;;;;;4.10;3.08;;;6.60;99.90;;;;;;5020827;28;20218;-67
2022/11/29 04:51:46;;;;;;;3.00;2.70;;;6.60;99.90;;;;;;5019203;28;20210;-68
2022/11/29 04:54:24;;;;;;;3.30;2.65;;;6.60;99.90;;;;;;5025098;28;20665;-68
2022/11/29 04:56:58;;;;;;;4.18;3.03;;;6.60;99.90;;;;;;5030615;28;20703;-68
2022/11/29 04:59:30;;;;;;;7.22;3.28;;;6.60;99.90;;;;;;5025131;28;20211;-67
2022/11/29 05:02:08;;;;;;;3.35;3.00;;;6.60;99.90;;;;;;5019819;28;20201;-68
2022/11/29 05:04:45;;;;;;;6.20;3.20;;;6.70;99.90;;;;;;5019623;28;20219;-68
2022/11/29 05:07:20;;;;;;;4.00;3.08;;;6.70;99.90;;;;;;5019290;28;20210;-68
2022/11/29 05:10:06;;;;;;;3.50;2.97;;;6.70;99.90;;;;;;5018645;28;20215;-68
2022/11/29 05:12:42;;;;;;;2.80;2.55;;;6.70;99.90;;;;;;5015442;28;20202;-68
2022/11/29 05:15:41;;;;;;;3.25;2.97;;;6.70;99.90;;;;;;5020717;28;20210;-69
2022/11/29 05:18:16;;;;;;;3.20;2.75;;;6.70;99.90;;;;;;5020791;28;20191;-68
2022/11/29 05:20:49;;;;;;;3.50;3.00;;;6.70;99.90;;;;;;5022255;28;20453;-68
2022/11/29 05:23:32;;;;;;;3.55;2.42;;;6.70;99.90;;;;;;5030503;28;20206;-68
2022/11/29 05:26:05;;;;;;;3.85;2.67;;;6.70;99.90;;;;;;5015193;28;20403;-67
2022/11/29 05:28:44;;;;;;;5.63;3.00;;;6.70;99.90;;;;;;5024358;28;20219;-68
2022/11/29 05:31:27;;;;;;;3.60;3.05;;;6.80;99.90;;;;;;5024534;28;20201;-68
2022/11/29 05:34:21;;;;;;;3.38;2.50;;;6.80;99.90;;;;;;5029580;28;20587;-68
2022/11/29 05:36:55;;;;;;;4.40;2.67;;;6.80;99.90;;;;;;5030048;28;20204;-68
2022/11/29 05:39:34;;;;;;;2.88;2.50;;;6.80;99.90;;;;;;5030572;28;20202;-66
2022/11/29 05:42:16;;;;;;;3.00;2.40;;;6.80;99.90;;;;;;5029346;28;20206;-67
2022/11/29 05:44:50;;;;;;;2.83;2.58;;;6.80;99.90;;;;;;5029587;28;20226;-66
2022/11/29 05:47:23;;;;;;;3.33;2.95;;;6.80;99.90;;;;;;5030607;28;20206;-67
2022/11/29 05:50:00;;;;;;;3.92;2.88;;;6.80;99.90;;;;;;5030258;28;20227;-67
2022/11/29 05:52:39;;;;;;;3.65;2.53;;;6.80;99.90;;;;;;5030129;28;20209;-65
2022/11/29 05:55:20;;;;;;;3.45;2.65;;;6.80;99.90;;;;;;5030465;28;20233;-67
2022/11/29 05:57:55;;;;;;;3.75;2.72;;;6.80;99.90;;;;;;5030315;28;20207;-67
2022/11/29 06:00:24;;;;;;;3.00;2.80;;;6.80;99.90;;;;;;5030044;28;20213;-65
2022/11/29 06:02:57;;;;;;;4.13;2.60;;;6.90;99.90;;;;;;5030278;28;20198;-67
2022/11/29 06:05:31;;;;;;;3.35;2.17;;;6.80;99.90;;;;;;5030351;28;20607;-66
2022/11/29 06:08:05;;;;;;;3.75;2.90;;;6.80;99.90;;;;;;5030265;28;20587;-65
2022/11/29 06:10:36;;;;;;;2.72;2.30;;;6.80;99.90;;;;;;5029694;28;20257;-66
2022/11/29 06:16:18;;;;;;;3.03;2.78;;;6.90;99.90;;;;;;4798050;22;20237;-69
2022/11/29 06:19:07;;;;;;;2.63;2.42;;;6.90;99.90;;;;;;5024387;28;20201;-69
2022/11/29 06:21:39;;;;;;;2.40;2.20;;;6.90;99.90;;;;;;5004816;28;20212;-69
2022/11/29 06:24:40;;;;;;;3.70;2.90;;;6.90;99.90;;;;;;5010555;28;20212;-69
2022/11/29 06:27:21;;;;;;;2.70;2.47;;;6.90;99.90;;;;;;5026546;28;20209;-69
2022/11/29 06:29:56;;;;;;;3.38;2.58;;;6.90;99.90;;;;;;5030024;28;20226;-69
2022/11/29 06:32:32;;;;;;;5.22;2.45;;;6.90;99.90;;;;;;5029073;28;20198;-69
2022/11/29 06:35:05;;;;;;;3.13;2.70;;;6.90;99.90;;;;;;5025086;28;20631;-69
2022/11/29 06:37:36;;;;;;;5.15;3.10;;;6.90;99.90;;;;;;5030203;28;20211;-69
2022/11/29 06:40:04;;;;;;;3.05;2.72;;;6.90;99.90;;;;;;5015589;28;20515;-69
2022/11/29 06:42:31;;;;;;;3.60;2.53;;;6.90;99.90;;;;;;5014647;28;20210;-69
2022/11/29 06:44:58;;;;;;;2.92;2.40;;;6.90;99.90;;;;;;5016402;28;20224;-69
2022/11/29 06:47:31;;;;;;;3.63;2.75;;;6.90;99.90;;;;;;5027286;28;20207;-68
2022/11/29 06:50:03;;;;;;;2.75;2.55;;;6.90;99.90;;;;;;5027691;28;20215;-68
2022/11/29 06:52:39;;;;;;;3.47;2.92;;;6.90;99.90;;;;;;5033170;28;20210;-68
2022/11/29 06:55:14;;;;;;;3.75;3.35;;;6.90;99.90;;;;;;5033583;28;20224;-68
2022/11/29 06:57:53;;;;;;;3.85;2.50;;;6.90;99.90;;;;;;5033629;28;20223;-68
2022/11/29 07:00:24;;;;;;;3.70;3.40;;;6.90;99.90;;;;;;5032781;28;20209;-68
2022/11/29 07:03:06;;;;;;;3.20;2.63;;;6.90;99.90;;;;;;5033451;28;20210;-68
2022/11/29 07:05:35;;;;;;;2.92;2.63;;;6.90;99.90;;;;;;5033496;28;20319;-68
2022/11/29 07:08:05;;;;;;;3.40;3.10;;;6.90;99.90;;;;;;5033189;28;20206;-68
2022/11/29 07:10:34;;;;;;;3.65;3.33;;;7.00;99.90;;;;;;5032643;28;20769;-68
2022/11/29 07:13:01;;;;;;;2.78;2.47;;;7.00;99.90;;;;;;5033400;28;20210;-68
2022/11/29 07:15:29;;;;;;;3.85;3.42;;;7.00;99.90;;;;;;5033139;28;20725;-69
2022/11/29 07:18:17;;;;;;;3.85;3.55;;;7.00;99.90;;;;;;5033007;28;20674;-68
2022/11/29 07:20:54;;;;;;;3.63;3.33;;;7.00;99.90;;;;;;5032445;28;20206;-68
2022/11/29 07:23:28;;;;;;;4.32;3.35;;;7.00;99.90;;;;;;5033354;28;20663;-69
2022/11/29 07:26:03;;;;;;;3.60;3.30;;;7.10;99.90;;;;;;5032727;28;20230;-69
2022/11/29 07:28:42;;;;;;;4.43;3.55;;;7.00;99.90;;;;;;5033044;28;20652;-70
2022/11/29 07:31:17;;;;;;;4.05;3.65;;;7.10;99.90;;;;;;5032556;28;20253;-69
2022/11/29 07:33:58;;;;;;;3.50;3.20;;;7.10;99.90;;;;;;5032798;28;20579;-69
2022/11/29 07:36:32;;;;;;;4.20;3.90;;;7.10;99.90;;;;;;5033114;28;20204;-69
2022/11/29 07:39:21;;;;;;;3.90;3.33;;;7.10;99.90;;;;;;5032547;28;20219;-69
2022/11/29 07:41:58;;;;;;;4.60;3.72;;;7.10;99.90;;;;;;5032087;28;20208;-69
2022/11/29 07:44:35;;;;;;;4.10;3.30;;;7.10;99.90;;;;;;5032811;28;20234;-69
2022/11/29 07:47:02;;;;;;;3.63;3.25;;;7.10;99.90;;;;;;5032598;28;20205;-70
2022/11/29 07:49:30;;;;;;;4.00;3.70;;;7.10;99.90;;;;;;5032694;28;20222;-69
2022/11/29 07:51:56;;;;;;;4.32;3.53;;;7.10;99.90;;;;;;5031990;28;20209;-69
2022/11/29 07:54:23;;;;;;;4.55;3.92;;;7.20;99.90;;;;;;5031894;28;20227;-69
2022/11/29 07:56:50;;;;;;;6.32;4.40;;;7.20;99.90;;;;;;5031858;28;20228;-69
2022/11/29 07:59:17;;;;;;;4.57;3.90;;;7.20;99.90;;;;;;5032419;28;20204;-69
2022/11/29 08:01:44;;;;;;;4.28;3.45;;;7.20;99.90;;;;;;5031702;28;20202;-69
2022/11/29 08:04:10;;;;;;;4.72;3.33;;;7.20;99.90;;;;;;5029009;28;20588;-69
2022/11/29 08:06:38;;;;;;;5.28;3.63;;;7.30;99.90;;;;;;5031205;28;20213;-69
2022/11/29 08:09:06;;;;;;;4.32;3.85;;;7.30;99.90;;;;;;5031753;28;20221;-70
2022/11/29 08:11:33;;;;;;;4.68;3.80;;;7.30;99.90;;;;;;5030755;28;20202;-69
2022/11/29 08:14:02;;;;;;;4.22;3.83;;;7.30;99.90;;;;;;5031505;28;20481;-69
2022/11/29 08:16:28;;;;;;;5.70;4.30;;;7.30;99.90;;;;;;5032011;28;20213;-69
2022/11/29 08:18:55;;;;;;;4.00;3.70;;;7.30;99.90;;;;;;5031146;28;20207;-69
2022/11/29 08:21:22;;;;;;;3.80;3.38;;;7.30;99.90;;;;;;5037771;28;20196;-69
2022/11/29 08:23:51;;;;;;;3.65;3.20;;;7.30;99.90;;;;;;5050913;28;20208;-69
2022/11/29 08:26:19;;;;;;;5.45;3.80;;;7.30;99.90;;;;;;5051396;28;20234;-69
2022/11/29 08:28:50;;;;;;;4.88;3.35;;;7.30;99.90;;;;;;5051444;28;20218;-69
2022/11/29 08:31:17;;;;;;;3.30;3.00;;;7.30;99.90;;;;;;5051279;28;20741;-69
2022/11/29 08:33:44;;;;;;;3.13;2.83;;;7.30;99.90;;;;;;5051363;28;20478;-69
2022/11/29 08:36:13;;;;;;;3.80;3.40;;;7.30;99.90;;;;;;5050860;28;20222;-69
2022/11/29 08:38:40;;;;;;;4.10;3.70;;;7.30;99.90;;;;;;5050931;28;20198;-69
2022/11/29 08:41:10;;;;;;;3.60;3.30;;;7.40;99.90;;;;;;5050589;28;20208;-69
2022/11/29 08:43:37;;;;;;;3.35;2.80;;;7.40;99.90;;;;;;5051072;28;20203;-69
2022/11/29 08:46:04;;;;;;;4.22;3.20;;;7.40;99.90;;;;;;5051140;28;20256;-69
2022/11/29 08:48:30;;;;;;;7.10;3.53;;;7.50;99.90;;;;;;5050243;28;20202;-68
2022/11/29 08:50:58;;;;;;;3.72;2.80;;;7.50;99.90;;;;;;5050096;28;20236;-69
2022/11/29 08:53:43;;;;;;;3.80;3.08;;;7.50;99.90;;;;;;5050884;28;20588;-69
2022/11/29 08:56:13;;;;;;;3.85;3.55;;;7.40;99.90;;;;;;5050385;28;20328;-68
2022/11/29 08:58:40;;;;;;;4.20;3.15;;;7.40;99.90;;;;;;5050729;28;20204;-69
2022/11/29 09:01:14;;;;;;;3.90;3.50;;;7.40;99.90;;;;;;5049933;28;20208;-69
2022/11/29 09:06:38;;;;;;;5.80;3.50;;;7.50;99.90;;;;;;5025945;28;20669;-69
2022/11/29 09:09:05;;;;;;;3.30;2.75;;;7.50;99.90;;;;;;5050483;28;20587;-70
2022/11/29 09:11:35;;;;;;;3.20;2.90;;;7.40;99.90;;;;;;5049711;28;20198;-69
2022/11/29 09:14:04;;;;;;;3.63;3.00;;;7.50;99.90;;;;;;5050601;28;20253;-69
2022/11/29 09:16:34;;;;;;;3.88;3.47;;;7.50;99.90;;;;;;5050546;28;20217;-69
2022/11/29 09:19:01;;;;;;;3.72;2.80;;;7.50;99.90;;;;;;5049854;28;20201;-69
2022/11/29 09:21:29;;;;;;;3.20;2.90;;;7.50;99.90;;;;;;5049840;28;20197;-69
2022/11/29 09:23:58;;;;;;;3.35;2.72;;;7.50;99.90;;;;;;5049754;28;20206;-69
2022/11/29 09:26:28;;;;;;;3.08;2.78;;;7.50;99.90;;;;;;5050049;28;20206;-69
2022/11/29 09:28:59;;;;;;;3.25;2.55;;;7.50;99.90;;;;;;5049966;28;20210;-69
2022/11/29 09:31:27;;;;;;;2.67;2.30;;;7.60;99.90;;;;;;5049738;28;20201;-69
2022/11/29 09:33:54;;;;;;;2.83;2.20;;;7.60;99.90;;;;;;5049759;28;20649;-69
2022/11/29 09:36:21;;;;;;;2.45;2.10;;;7.60;99.90;;;;;;5049502;28;20240;-69
2022/11/29 09:38:48;;;;;;;2.30;2.10;;;7.60;99.90;;;;;;5049773;28;20617;-69
2022/11/29 09:41:32;;;;;;;2.30;2.10;;;7.60;99.90;;;;;;5049277;28;20202;-69
2022/11/29 09:44:08;;;;;;;2.72;2.28;;;7.60;99.90;;;;;;5050299;28;20202;-69
2022/11/29 09:46:43;;;;;;;2.55;2.08;;;7.50;99.90;;;;;;5049620;28;20201;-69
2022/11/29 09:49:48;;;;;;;2.65;2.45;;;7.50;99.90;;;;;;5049490;28;20598;-69
2022/11/29 09:52:22;;;;;;;2.58;2.33;;;7.50;99.90;;;;;;5010066;28;20670;-69
2022/11/29 09:54:57;;;;;;;2.28;2.08;;;7.50;99.90;;;;;;5010152;28;20226;-69
2022/11/29 09:57:25;;;;;;;4.60;3.15;;;7.50;99.90;;;;;;5024292;28;20666;-69
2022/11/29 09:59:57;;;;;;;3.35;2.85;;;7.50;99.90;;;;;;5029835;28;20233;-69
2022/11/29 10:02:32;;;;;;;3.22;2.65;;;7.50;99.90;;;;;;5028955;28;20220;-69
2022/11/29 10:05:06;;;;;;;3.65;3.03;;;7.60;99.90;;;;;;5029881;28;20592;-69
2022/11/29 10:07:39;;;;;;;4.22;3.50;;;7.50;99.90;;;;;;5029617;28;20207;-68
2022/11/29 10:10:13;;;;;;;3.97;3.45;;;7.60;99.90;;;;;;5029354;28;20220;-68
2022/11/29 10:12:46;;;;;;;3.97;3.50;;;7.60;99.90;;;;;;5029208;28;20680;-69
2022/11/29 10:15:20;;;;;;;3.90;3.45;;;7.50;99.90;;;;;;5029656;28;20326;-69
2022/11/29 10:17:51;;;;;;;5.25;3.90;;;7.50;99.90;;;;;;5029206;28;20203;-69
2022/11/29 10:20:20;;;;;;;3.80;3.13;;;7.50;99.90;;;;;;5033369;28;20204;-68
2022/11/29 10:22:52;;;;;;;4.53;3.85;;;7.50;99.90;;;;;;5033585;28;20299;-69
2022/11/29 10:25:24;;;;;;;5.05;3.88;;;7.60;99.90;;;;;;5033017;28;20220;-69
2022/11/29 10:27:52;;;;;;;5.10;3.40;;;7.60;99.90;;;;;;5033418;28;20273;-69
2022/11/29 10:30:20;;;;;;;3.38;3.03;;;7.70;99.90;;;;;;5033226;28;20235;-69
2022/11/29 10:32:51;;;;;;;4.35;3.72;;;7.70;99.90;;;;;;5033001;28;20202;-69
2022/11/29 10:35:19;;;;;;;5.93;4.25;;;7.70;99.90;;;;;;5033499;28;20235;-69
2022/11/29 10:37:47;;;;;;;4.15;3.53;;;7.60;99.90;;;;;;5032528;28;20212;-69
2022/11/29 10:40:18;;;;;;;4.05;3.25;;;7.60;99.90;;;;;;5032969;28;20693;-68
2022/11/29 10:42:54;;;;;;;4.60;3.58;;;7.60;99.90;;;;;;5032803;28;20204;-69
2022/11/29 10:45:29;;;;;;;3.80;3.05;;;7.60;99.90;;;;;;5031158;28;20222;-69
2022/11/29 10:48:01;;;;;;;4.03;3.05;;;7.60;99.90;;;;;;5033187;28;20201;-69
2022/11/29 10:50:31;;;;;;;5.68;3.70;;;7.50;99.90;;;;;;5032554;28;20232;-69
2022/11/29 10:53:04;;;;;;;4.60;3.58;;;7.50;99.90;;;;;;5033307;28;20228;-69
2022/11/29 10:55:38;;;;;;;4.13;3.15;;;7.50;99.90;;;;;;5013751;28;20231;-69
2022/11/29 10:58:24;;;;;;;4.95;3.55;;;7.50;99.90;;;;;;5013663;28;20724;-69
2022/11/29 11:00:55;;;;;;;5.15;3.65;;;7.50;99.90;;;;;;5012861;28;20288;-69
2022/11/29 11:03:34;;;;;;;4.90;3.55;;;7.50;99.90;;;;;;5013565;28;20208;-69
2022/11/29 11:06:10;;;;;;;4.72;3.83;;;7.50;99.90;;;;;;5013527;28;20229;-69
2022/11/29 11:08:41;;;;;;;4.57;3.10;;;7.50;99.90;;;;;;5013180;28;20206;-69
2022/11/29 11:11:09;;;;;;;4.55;3.65;;;7.50;99.90;;;;;;5013083;28;20275;-69
2022/11/29 11:13:38;;;;;;;3.97;3.58;;;7.40;99.90;;;;;;5012965;28;20199;-69
2022/11/29 11:16:15;;;;;;;6.25;4.03;;;7.50;99.90;;;;;;5013173;28;20250;-69
2022/11/29 11:18:42;;;;;;;5.35;3.17;;;7.40;99.90;;;;;;5013027;28;20700;-69
2022/11/29 11:21:11;;;;;;;3.88;3.47;;;7.40;99.90;;;;;;5014855;28;20273;-76
2022/11/29 11:23:45;;;;;;;3.28;2.58;;;7.40;99.90;;;;;;5018297;28;20205;-70
2022/11/29 11:26:14;;;;;;;4.85;3.15;;;7.40;99.90;;;;;;5033302;28;20601;-70
2022/11/29 11:28:48;;;;;;;4.45;3.35;;;7.40;99.90;;;;;;5033400;28;20300;-69
2022/11/29 11:31:29;;;;;;;4.05;3.50;;;7.40;99.90;;;;;;5035277;28;20242;-69
2022/11/29 11:33:56;;;;;;;4.63;3.33;;;7.40;99.90;;;;;;5031510;28;20228;-68
2022/11/29 11:36:26;;;;;;;4.65;3.47;;;7.50;99.90;;;;;;5031598;28;20224;-69
2022/11/29 11:38:54;;;;;;;4.57;4.18;;;7.50;99.90;;;;;;5030265;28;20834;-69
2022/11/29 11:42:35;;;;;;;4.47;3.50;;;7.50;99.90;;;;;;5031088;28;20203;-69
2022/11/29 11:44:28;;;;;;;5.85;4.38;;;7.60;99.90;;;;;;5031137;28;20292;-68
2022/11/29 11:46:57;;;;;;;4.72;3.63;;;7.60;99.90;;;;;;5030957;28;20202;-69
2022/11/29 11:49:31;;;;;;;5.00;3.60;;;7.60;99.90;;;;;;5031818;28;20632;-68
2022/11/29 11:51:59;;;;;;;3.35;3.05;;;7.60;99.90;;;;;;5031986;28;20206;-69
2022/11/29 11:54:27;;;;;;;6.65;4.28;;;7.50;99.90;;;;;;5032330;28;20223;-69
2022/11/29 11:56:54;;;;;;;4.55;3.90;;;7.50;99.90;;;;;;5032423;28;20212;-69
2022/11/29 11:59:23;;;;;;;5.90;4.50;;;7.60;99.90;;;;;;5032252;28;20209;-69
2022/11/29 12:01:51;;;;;;;3.97;3.15;;;7.60;99.90;;;;;;5031299;28;20661;-69
2022/11/29 12:04:22;;;;;;;4.93;3.80;;;7.60;99.90;;;;;;5032189;28;20204;-69
2022/11/29 12:06:54;;;;;;;5.65;3.78;;;7.60;99.90;;;;;;5032090;28;20204;-69
2022/11/29 12:09:32;;;;;;;3.72;3.40;;;7.70;99.90;;;;;;5032126;28;20221;-69
2022/11/29 12:12:08;;;;;;;4.05;3.67;;;7.70;99.90;;;;;;5031554;28;20230;-68
2022/11/29 12:14:43;;;;;;;6.18;4.05;;;7.80;99.90;;;;;;5102214;22;20228;-66
2022/11/29 12:17:17;;;;;;;3.90;3.50;;;7.80;99.90;;;;;;5051129;28;20210;-65
2022/11/29 12:19:55;;;;;;;5.50;4.18;;;7.80;99.90;;;;;;5051628;28;20581;-65
2022/11/29 12:22:26;;;;;;;4.15;3.75;;;7.90;99.90;;;;;;5051456;28;20203;-67
2022/11/29 12:24:57;;;;;;;3.60;3.05;;;7.90;99.90;;;;;;5051391;28;20232;-67
2022/11/29 12:27:24;;;;;;;6.60;4.85;;;7.90;99.90;;;;;;5051563;28;20656;-66
2022/11/29 12:29:50;;;;;;;10.35;7.68;;;7.90;99.90;;;;;;5051300;28;20226;-66
2022/11/29 12:32:38;;;;;;;6.03;5.30;;;7.90;99.90;;;;;;5050874;28;20202;-66
2022/11/29 12:35:36;;;;;;;6.70;5.50;;;7.90;99.90;;;;;;5051091;28;20225;-66
2022/11/29 12:38:14;;;;;;;5.82;5.10;;;7.90;99.90;;;;;;5051156;28;20212;-66
2022/11/29 12:40:48;;;;;;;5.70;4.50;;;7.90;99.90;;;;;;5050705;28;20305;-65
2022/11/29 12:43:24;;;;;;;5.20;4.45;;;7.80;99.90;;;;;;5051228;28;20208;-66
2022/11/29 12:46:00;;;;;;;5.10;4.20;;;7.80;99.90;;;;;;5051284;28;20232;-66
2022/11/29 12:48:35;;;;;;;5.50;4.10;;;7.80;99.90;;;;;;5050980;28;20598;-66
2022/11/29 12:51:10;;;;;;;5.30;4.00;;;7.80;99.90;;;;;;5050208;28;20231;-66
2022/11/29 12:53:47;;;;;;;6.00;4.82;;;7.80;99.90;;;;;;5051050;28;20205;-65
2022/11/29 12:56:18;;;;;;;5.50;4.03;;;7.90;99.90;;;;;;5050845;28;20605;-65
2022/11/29 12:58:57;;;;;;;11.20;4.60;;;7.90;99.90;;;;;;5051112;28;20210;-67
2022/11/29 13:01:35;;;;;;;6.05;4.15;;;7.90;99.90;;;;;;5037483;28;20206;-66
2022/11/29 13:04:11;;;;;;;4.57;3.28;;;7.80;99.90;;;;;;5031003;28;20202;-66
2022/11/29 13:06:47;;;;;;;9.40;5.07;;;7.80;99.90;;;;;;5031208;28;20206;-66
2022/11/29 13:09:53;;;;;;;12.95;6.40;;;7.90;99.90;;;;;;5030978;28;20201;-66
2022/11/29 13:12:26;;;;;;;8.55;5.60;;;7.80;99.90;;;;;;5030372;28;20204;-66
2022/11/29 13:14:59;;;;;;;11.80;6.22;;;7.80;99.90;;;;;;5030795;28;20228;-66
2022/11/29 13:17:34;;;;;;;6.13;4.40;;;7.80;99.90;;;;;;5030688;28;20203;-66
2022/11/29 13:20:13;;;;;;;8.75;5.80;;;7.80;99.90;;;;;;5030712;28;20689;-66
2022/11/29 13:22:51;;;;;;;3.75;3.45;;;7.80;99.90;;;;;;5030785;28;20211;-66
2022/11/29 13:25:23;;;;;;;10.27;5.68;;;7.70;99.90;;;;;;5030619;28;20589;-66
2022/11/29 13:27:57;;;;;;;6.82;4.85;;;7.70;99.90;;;;;;5030999;28;20204;-65
2022/11/29 13:30:24;;;;;;;6.28;4.72;;;7.60;99.90;;;;;;5029842;28;20704;-65
2022/11/29 13:32:57;;;;;;;5.95;3.90;;;7.60;99.90;;;;;;5030860;28;20204;-66
2022/11/29 13:35:30;;;;;;;8.05;5.03;;;7.60;99.90;;;;;;5030517;28;20227;-65
2022/11/29 13:38:02;;;;;;;5.68;3.47;;;7.60;99.90;;;;;;5030888;28;20205;-66
2022/11/29 13:40:36;;;;;;;11.65;7.40;;;7.70;99.90;;;;;;5030025;28;20200;-66
2022/11/29 13:43:11;;;;;;;8.43;5.95;;;7.70;99.90;;;;;;5030691;28;20234;-66